Terminal Aerodrome Forecast
Issued by NWS

Home | Current Version | Previous Version | Text Only | Print | Product List | Glossary On
Versions: 1 2 3 4 5 6 7 8 9 10 11 12 13 14 15
000
FTUS44 KLUB 180200 AAA
TAFCDS
TAF AMD
KCDS 180256Z 1803/1824 13009KT 1SM BR OVC002
      TEMPO 1803/1804 1/2SM FG
     FM181500 02007KT P6SM OVC025=

USA.gov is the U.S. government's official web portal to all federal, state and local government web resources and services.